Time;durP1;ratioP1;P1;durP2;ratioP2;P2;SDS_P1;SDS_P2;PMS_P1;PMS_P2;Temp;Humidity;BMP_temperature;BMP_pressure;BME280_temperature;BME280_humidity;BME280_pressure;Samples;Min_cycle;Max_cycle;Signal;HPM_P1;HPM_P2
2022/08/05 00:02:56;;;;;;;0.47;0.30;;;;;;;17.80;100.00;101676.91;10556669;28;20449;-76
2022/08/05 00:07:58;;;;;;;0.10;0.10;;;;;;;17.69;100.00;101685.50;10557715;28;20043;-76
2022/08/05 00:13:02;;;;;;;0.30;0.30;;;;;;;17.86;100.00;101705.63;10507798;28;20048;-76
2022/08/05 00:18:03;;;;;;;1.00;0.45;;;;;;;17.84;100.00;101728.19;10565304;28;20043;-76
2022/08/05 00:23:05;;;;;;;0.38;0.38;;;;;;;17.76;100.00;101713.38;10531271;28;20039;-76
2022/08/05 00:28:14;;;;;;;0.32;0.25;;;;;;;17.73;100.00;101682.09;10534617;28;20420;-76
2022/08/05 00:33:21;;;;;;;1.55;0.73;;;;;;;17.73;100.00;101673.38;10517575;28;20491;-76
2022/08/05 00:38:43;;;;;;;2.90;0.40;;;;;;;17.87;100.00;101683.94;10517002;28;20133;-76
2022/08/05 00:43:45;;;;;;;0.45;0.30;;;;;;;17.83;100.00;101687.38;10531568;28;20048;-76
2022/08/05 00:48:51;;;;;;;4.57;0.52;;;;;;;17.91;100.00;101707.44;10544068;28;20081;-77
2022/08/05 00:53:52;;;;;;;1.13;0.80;;;;;;;17.75;100.00;101690.81;10555531;28;20395;-77
2022/08/05 00:59:04;;;;;;;0.77;0.50;;;;;;;17.60;100.00;101680.25;10524485;28;20062;-76
2022/08/05 01:04:07;;;;;;;0.47;0.20;;;;;;;17.49;100.00;101674.03;10516499;28;20048;-76
2022/08/05 01:09:25;;;;;;;1.15;0.85;;;;;;;17.68;100.00;101669.88;10521978;28;20586;-76
2022/08/05 01:14:34;;;;;;;0.47;0.32;;;;;;;17.44;100.00;101643.63;10523699;28;20066;-76
2022/08/05 01:20:00;;;;;;;0.28;0.20;;;;;;;17.31;100.00;101646.97;10581923;28;20039;-77
2022/08/05 01:25:41;;;;;;;0.20;0.17;;;;;;;17.27;100.00;101650.38;10570506;28;20547;-77
2022/08/05 01:31:21;;;;;;;1.00;0.32;;;;;;;17.15;100.00;101634.66;10544843;28;20067;-76
2022/08/05 01:36:28;;;;;;;0.23;0.23;;;;;;;17.04;100.00;101622.38;10560988;28;20090;-76
2022/08/05 01:41:34;;;;;;;0.40;0.30;;;;;;;17.07;100.00;101632.84;10535493;28;20048;-76
2022/08/05 01:46:40;;;;;;;0.77;0.40;;;;;;;17.00;100.00;101641.44;10570399;28;20487;-76
2022/08/05 01:51:48;;;;;;;1.30;0.50;;;;;;;16.99;100.00;101644.91;10546350;28;20067;-77
2022/08/05 01:56:55;;;;;;;0.30;0.20;;;;;;;17.10;100.00;101653.69;10583601;28;20127;-76
2022/08/05 02:02:19;;;;;;;0.20;0.13;;;;;;;17.06;100.00;101677.94;10568467;28;20078;-76
2022/08/05 02:07:30;;;;;;;0.35;0.32;;;;;;;16.97;100.00;101683.03;10525488;28;20155;-77
2022/08/05 02:12:55;;;;;;;0.32;0.20;;;;;;;17.01;100.00;101678.75;10522718;28;20044;-76
2022/08/05 02:18:06;;;;;;;0.15;0.15;;;;;;;16.98;100.00;101679.59;10544945;28;20042;-76
2022/08/05 02:23:35;;;;;;;0.20;0.20;;;;;;;16.94;100.00;101672.63;10529807;28;20040;-76
2022/08/05 02:28:42;;;;;;;0.80;0.30;;;;;;;16.95;100.00;101698.66;10540163;28;20422;-76
2022/08/05 02:33:57;;;;;;;3.20;1.10;;;;;;;16.93;100.00;101694.28;10558360;28;20040;-77
2022/08/05 02:39:01;;;;;;;0.13;0.13;;;;;;;17.03;100.00;101709.13;10537653;28;20052;-77
2022/08/05 02:44:07;;;;;;;0.10;0.10;;;;;;;17.12;100.00;101706.66;10554384;28;20402;-77
2022/08/05 02:49:14;;;;;;;0.30;0.30;;;;;;;17.02;100.00;101712.59;10534353;28;20028;-76
2022/08/05 02:54:17;;;;;;;0.63;0.32;;;;;;;16.99;100.00;101701.28;10528772;28;20041;-76
2022/08/05 02:59:43;;;;;;;0.80;0.52;;;;;;;16.97;100.00;101670.03;10493045;28;20487;-76
2022/08/05 03:04:53;;;;;;;0.17;0.17;;;;;;;16.92;100.00;101632.63;10520857;28;20055;-76
2022/08/05 03:09:56;;;;;;;0.20;0.20;;;;;;;16.97;100.00;101683.03;10533569;28;20040;-76
2022/08/05 03:14:58;;;;;;;0.90;0.40;;;;;;;17.02;100.00;101686.56;10533708;28;20054;-76
2022/08/05 03:19:59;;;;;;;1.17;0.47;;;;;;;17.01;100.00;101708.28;10510039;28;20048;-76
2022/08/05 03:25:01;;;;;;;0.95;0.40;;;;;;;17.01;100.00;101695.25;10514221;28;20407;-76
2022/08/05 03:30:25;;;;;;;0.75;0.40;;;;;;;16.91;100.00;101659.50;10527145;28;20479;-76
2022/08/05 03:35:35;;;;;;;0.68;0.40;;;;;;;16.98;100.00;101669.19;10510160;28;20548;-76
2022/08/05 03:40:43;;;;;;;0.45;0.28;;;;;;;16.92;100.00;101653.47;10517446;28;20399;-76
2022/08/05 03:45:47;;;;;;;0.38;0.20;;;;;;;17.04;100.00;101655.38;10507152;28;20062;-75
2022/08/05 03:51:37;;;;;;;5.05;0.40;;;;;;;17.03;100.00;101662.28;10489941;28;20044;-76
2022/08/05 03:57:03;;;;;;;0.30;0.20;;;;;;;16.95;100.00;101645.69;10509014;28;20082;-77
2022/08/05 04:02:33;;;;;;;0.08;0.05;;;;;;;16.98;100.00;101655.31;10509132;28;20043;-76
2022/08/05 04:07:46;;;;;;;;;;;;;;;16.91;100.00;101668.19;10515141;28;20051;-76
2022/08/05 04:12:59;;;;;;;0.68;0.55;;;;;;;17.18;100.00;101651.19;10527898;28;19920;-76
2022/08/05 04:18:06;;;;;;;0.52;0.35;;;;;;;16.96;100.00;101655.25;10480831;28;20042;-76
2022/08/05 04:23:12;;;;;;;0.30;0.30;;;;;;;17.04;100.00;101658.81;10514507;28;20499;-76
2022/08/05 04:28:18;;;;;;;0.65;0.30;;;;;;;17.12;100.00;101670.19;10520259;28;20434;-76
2022/08/05 04:33:21;;;;;;;1.45;0.73;;;;;;;17.06;100.00;101675.34;10500635;28;20047;-76
2022/08/05 04:38:44;;;;;;;0.77;0.55;;;;;;;16.96;100.00;101681.28;10509628;28;20043;-77
2022/08/05 04:43:51;;;;;;;1.23;0.65;;;;;;;17.07;100.00;101679.69;10532206;28;20051;-75
2022/08/05 04:48:53;;;;;;;0.82;0.65;;;;;;;17.11;100.00;101671.06;10543241;28;20024;-76
2022/08/05 04:53:54;;;;;;;1.00;0.65;;;;;;;17.12;100.00;101677.16;10559629;28;20039;-76
2022/08/05 04:58:56;;;;;;;0.85;0.50;;;;;;;17.24;100.00;101686.81;10543671;28;20032;-76
2022/08/05 05:04:00;;;;;;;2.05;0.47;;;;;;;17.24;100.00;101733.66;10518708;28;20054;-76
2022/08/05 05:09:02;;;;;;;0.43;0.25;;;;;;;17.13;100.00;101717.94;10518322;28;20449;-75
2022/08/05 05:14:08;;;;;;;0.40;0.40;;;;;;;17.19;100.00;101727.53;10510512;28;20052;-75
2022/08/05 05:19:16;;;;;;;2.28;0.85;;;;;;;17.35;100.00;101734.69;10493052;28;20051;-74
2022/08/05 05:24:26;;;;;;;0.30;0.10;;;;;;;17.40;100.00;101746.03;10531797;28;20040;-74
2022/08/05 05:29:48;;;;;;;0.35;0.28;;;;;;;17.32;100.00;101739.84;10547960;28;20044;-74
2022/08/05 05:35:05;;;;;;;0.32;0.17;;;;;;;17.28;100.00;101740.69;10522466;28;20127;-73
2022/08/05 05:40:09;;;;;;;0.63;0.20;;;;;;;17.21;100.00;101741.47;10541068;28;20298;-74
2022/08/05 05:45:13;;;;;;;2.22;1.02;;;;;;;17.21;100.00;101754.50;10546925;28;20063;-73
2022/08/05 05:50:17;;;;;;;1.45;0.68;;;;;;;17.40;100.00;101737.34;10520582;28;20071;-73
2022/08/05 05:55:45;;;;;;;0.38;0.38;;;;;;;17.12;100.00;101714.47;10547949;28;20052;-77
2022/08/05 06:01:01;;;;;;;0.38;0.30;;;;;;;17.32;100.00;101720.75;10528716;28;20108;-76
2022/08/05 06:06:13;;;;;;;0.15;0.10;;;;;;;17.24;100.00;101725.84;10559938;28;20039;-76
2022/08/05 06:11:15;;;;;;;0.30;0.30;;;;;;;17.38;100.00;101711.28;10559110;28;20032;-76
2022/08/05 06:16:17;;;;;;;0.43;0.32;;;;;;;17.37;100.00;101725.16;10558430;28;20471;-76
2022/08/05 06:21:31;;;;;;;0.73;0.38;;;;;;;17.17;100.00;101718.84;10556031;28;20406;-77
2022/08/05 06:27:09;;;;;;;0.17;0.17;;;;;;;17.36;100.00;101743.34;10524955;28;20075;-76
2022/08/05 06:32:31;;;;;;;0.57;0.32;;;;;;;17.51;100.00;101747.88;10510186;28;20078;-76
2022/08/05 06:37:33;;;;;;;0.38;0.25;;;;;;;17.74;100.00;101756.81;10541029;28;20047;-76
2022/08/05 06:42:57;;;;;;;0.93;0.63;;;;;;;18.00;100.00;101760.53;10531485;28;20047;-76
2022/08/05 06:47:59;;;;;;;0.10;0.10;;;;;;;17.97;100.00;101758.78;10532979;28;20044;-76
2022/08/05 06:53:20;;;;;;;0.25;0.25;;;;;;;17.76;100.00;101744.66;10515341;28;20104;-76
2022/08/05 06:58:31;;;;;;;0.65;0.65;;;;;;;17.86;100.00;101749.94;10531347;28;20494;-75
2022/08/05 07:03:52;;;;;;;0.68;0.50;;;;;;;17.98;100.00;101747.50;10533432;28;20499;-76
2022/08/05 07:08:53;;;;;;;0.30;0.20;;;;;;;18.05;100.00;101756.25;10533331;28;20036;-76
2022/08/05 07:19:29;;;;;;;1.75;1.00;;;;;;;17.95;100.00;101763.09;10531350;28;20036;-76
2022/08/05 07:24:51;;;;;;;1.05;0.82;;;;;;;17.90;100.00;101777.81;10532171;28;20067;-76
2022/08/05 07:36:29;;;;;;;0.28;0.28;;;;;;;18.09;100.00;101799.75;10530923;28;20032;-75
2022/08/05 07:41:30;;;;;;;2.58;1.40;;;;;;;18.26;100.00;101805.09;10525783;28;20113;-76
2022/08/05 07:46:52;;;;;;;0.75;0.43;;;;;;;18.50;100.00;101803.56;10514719;28;20059;-76
2022/08/05 07:51:54;;;;;;;1.20;0.88;;;;;;;18.58;100.00;101814.91;10517756;28;20048;-76
2022/08/05 07:56:56;;;;;;;1.15;0.70;;;;;;;18.59;100.00;101806.22;10531465;28;20040;-76
2022/08/05 08:02:15;;;;;;;0.73;0.43;;;;;;;18.38;100.00;101815.63;10518687;28;20044;-77
2022/08/05 08:07:19;;;;;;;1.02;0.70;;;;;;;18.55;100.00;101818.34;10517846;28;20097;-75
2022/08/05 08:12:23;;;;;;;0.98;0.68;;;;;;;18.85;100.00;101808.13;10524698;28;20048;-76
2022/08/05 08:17:40;;;;;;;0.90;0.55;;;;;;;18.77;100.00;101788.94;10535253;28;20074;-76
2022/08/05 08:22:55;;;;;;;1.10;0.63;;;;;;;18.79;100.00;101787.22;10525436;28;20083;-76
2022/08/05 08:27:58;;;;;;;1.40;0.80;;;;;;;19.23;100.00;101794.44;10535943;28;20044;-76
2022/08/05 08:33:05;;;;;;;1.60;1.42;;;;;;;18.89;100.00;101789.00;10507255;28;20044;-76
2022/08/05 08:38:08;;;;;;;1.70;1.10;;;;;;;18.84;100.00;101801.16;10523081;28;20040;-76
2022/08/05 08:43:18;;;;;;;0.77;0.43;;;;;;;18.85;100.00;101806.38;10537296;28;20079;-76
2022/08/05 08:48:44;;;;;;;1.20;0.65;;;;;;;18.92;100.00;101804.72;10506522;28;20060;-76
2022/08/05 08:54:09;;;;;;;0.73;0.47;;;;;;;18.87;100.00;101791.59;10536012;28;20044;-76
2022/08/05 08:59:16;;;;;;;0.40;0.40;;;;;;;18.91;100.00;101782.03;10519788;28;20044;-76
2022/08/05 09:04:20;;;;;;;0.20;0.17;;;;;;;18.99;100.00;101777.78;10532988;28;20043;-75
2022/08/05 09:09:32;;;;;;;0.50;0.45;;;;;;;19.20;100.00;101783.09;10504312;28;20104;-75
2022/08/05 09:14:37;;;;;;;0.93;0.50;;;;;;;18.91;100.00;101763.78;10532846;28;20483;-76
2022/08/05 09:19:59;;;;;;;0.28;0.20;;;;;;;19.84;100.00;101760.59;10532524;28;20047;-76
2022/08/05 09:25:03;;;;;;;0.47;0.43;;;;;;;20.42;100.00;101723.09;10551364;28;20052;-76
2022/08/05 09:30:24;;;;;;;0.10;0.10;;;;;;;20.55;100.00;101735.28;10532816;28;20040;-76
2022/08/05 09:35:26;;;;;;;0.22;0.22;;;;;;;20.44;100.00;101716.09;10536975;28;20059;-75
2022/08/05 09:40:35;;;;;;;0.77;0.35;;;;;;;20.52;100.00;101722.19;10553825;28;20036;-76
2022/08/05 09:45:39;;;;;;;0.20;0.20;;;;;;;20.22;100.00;101729.22;10561962;28;20090;-76
2022/08/05 09:51:10;;;;;;;0.68;0.22;;;;;;;20.91;100.00;101720.34;10525932;28;20048;-75
2022/08/05 09:56:27;;;;;;;0.43;0.20;;;;;;;21.48;100.00;101713.06;10528463;28;20040;-76
2022/08/05 10:01:32;;;;;;;0.20;0.20;;;;;;;20.47;100.00;101731.81;10543206;28;20101;-75
2022/08/05 10:06:34;;;;;;;0.00;0.00;;;;;;;20.36;100.00;101728.34;10543224;28;20101;-75
2022/08/05 10:11:35;;;;;;;0.00;0.00;;;;;;;19.87;100.00;101727.50;10522684;28;20040;-76
2022/08/05 10:16:37;;;;;;;0.10;0.10;;;;;;;19.85;100.00;101725.75;10537578;28;20044;-76
2022/08/05 10:21:53;;;;;;;0.10;0.10;;;;;;;20.15;100.00;101737.09;10526164;28;20070;-76
2022/08/05 10:26:55;;;;;;;0.00;0.00;;;;;;;20.55;100.00;101729.19;10541914;28;20437;-76
2022/08/05 10:32:02;;;;;;;0.00;0.00;;;;;;;21.02;100.00;101724.69;10537145;28;20071;-76
2022/08/05 10:37:36;;;;;;;0.20;0.10;;;;;;;21.51;100.00;101719.16;10524406;28;20101;-76
2022/08/05 10:43:39;;;;;;;0.37;0.20;;;;;;;22.01;100.00;101724.03;10534259;28;20047;-75
2022/08/05 10:48:44;;;;;;;0.00;0.00;;;;;;;22.91;100.00;101717.88;10523622;28;20077;-76
2022/08/05 10:54:00;;;;;;;0.10;0.00;;;;;;;22.42;100.00;101725.44;10525696;28;20067;-77
2022/08/05 10:59:26;;;;;;;0.00;0.00;;;;;;;21.41;100.00;101727.94;10524578;28;20048;-76
2022/08/05 11:04:54;;;;;;;0.35;0.10;;;;;;;21.40;100.00;101737.56;10516901;28;20043;-77
2022/08/05 11:10:00;;;;;;;0.20;0.17;;;;;;;22.35;92.27;101740.34;10514570;28;20127;-77
2022/08/05 11:15:27;;;;;;;0.57;0.17;;;;;;;21.80;89.35;101744.34;10513730;28;20036;-77
2022/08/05 11:20:50;;;;;;;0.10;0.05;;;;;;;22.05;100.00;101731.03;10515439;28;20032;-77
2022/08/05 11:26:04;;;;;;;0.00;0.00;;;;;;;21.92;96.02;101745.13;10549572;28;20048;-78
2022/08/05 11:32:09;;;;;;;0.50;0.10;;;;;;;21.55;80.04;101757.59;10531984;28;20032;-76
2022/08/05 11:37:43;;;;;;;0.00;0.00;;;;;;;21.96;83.81;101757.31;10539947;28;20407;-77
2022/08/05 11:43:05;;;;;;;0.10;0.10;;;;;;;22.11;79.18;101754.56;10542367;28;20403;-76
2022/08/05 11:48:10;;;;;;;0.00;0.00;;;;;;;22.39;64.71;101766.63;10561117;28;20377;-76
2022/08/05 11:53:12;;;;;;;0.00;0.00;;;;;;;21.77;60.73;101773.22;10550623;28;20044;-77
2022/08/05 11:58:39;;;;;;;0.20;0.20;;;;;;;23.25;63.90;101775.31;10522016;28;20483;-77
2022/08/05 12:03:55;;;;;;;0.00;0.00;;;;;;;23.27;49.05;101773.53;10514897;28;20075;-76
2022/08/05 12:15:57;;;;;;;0.05;0.03;;;;;;;23.73;46.94;101793.03;10538657;28;20044;-77
2022/08/05 12:21:14;;;;;;;0.00;0.00;;;;;;;23.23;48.37;101800.72;10512359;28;20097;-77
2022/08/05 12:26:19;;;;;;;0.00;0.00;;;;;;;24.56;49.80;101798.69;10506311;28;20100;-77
2022/08/05 12:31:23;;;;;;;0.00;0.00;;;;;;;23.27;44.88;101821.69;10521401;28;20050;-77
2022/08/05 12:36:46;;;;;;;0.00;0.00;;;;;;;23.11;46.65;101826.25;10528498;28;20040;-76
2022/08/05 12:41:48;;;;;;;0.00;0.00;;;;;;;22.58;47.85;101832.94;10515637;28;20467;-77
2022/08/05 12:46:58;;;;;;;0.20;0.15;;;;;;;22.21;52.34;101841.97;10547093;28;20044;-76
2022/08/05 12:52:02;;;;;;;0.10;0.10;;;;;;;22.00;48.39;101843.03;10536307;28;20126;-77
2022/08/05 12:57:20;;;;;;;0.10;0.10;;;;;;;22.03;56.17;101854.38;10510965;28;20112;-76
2022/08/05 13:02:59;;;;;;;0.00;0.00;;;;;;;21.89;51.19;101871.06;10511426;28;20542;-76
2022/08/05 13:08:03;;;;;;;0.00;0.00;;;;;;;22.07;51.87;101870.97;10538054;28;20037;-76
2022/08/05 13:13:09;;;;;;;0.25;0.10;;;;;;;21.94;55.85;101874.50;10516736;28;20422;-77
2022/08/05 13:26:29;;;;;;;0.00;0.00;;;;;;;22.12;52.12;101889.28;10542195;28;20036;-76
2022/08/05 13:31:31;;;;;;;0.05;0.05;;;;;;;22.77;56.51;101883.56;10536005;28;20048;-76
2022/08/05 13:36:53;;;;;;;0.17;0.00;;;;;;;22.52;55.66;101889.00;10531568;28;20445;-75
2022/08/05 13:41:54;;;;;;;0.00;0.00;;;;;;;23.23;59.78;101885.72;10547463;28;20402;-75
2022/08/05 13:46:56;;;;;;;0.00;0.00;;;;;;;23.81;63.70;101891.13;10529094;28;20051;-75
2022/08/05 13:52:20;;;;;;;0.00;0.00;;;;;;;23.76;52.90;101909.63;10564773;28;20043;-76
2022/08/05 13:57:29;;;;;;;0.00;0.00;;;;;;;22.45;62.85;101911.81;10532883;28;20143;-76
2022/08/05 14:03:16;;;;;;;0.00;0.00;;;;;;;21.90;63.28;101925.28;10528607;28;20039;-76
2022/08/05 14:08:18;;;;;;;0.00;0.00;;;;;;;21.36;64.77;101918.47;10545281;28;20073;-76
2022/08/05 14:20:29;;;;;;;0.00;0.00;;;;;;;21.37;66.10;101936.78;10514893;28;20032;-76
2022/08/05 14:25:31;;;;;;;0.00;0.00;;;;;;;21.15;62.13;101956.94;10461623;28;20407;-75
2022/08/05 14:30:32;;;;;;;0.00;0.00;;;;;;;21.05;67.95;101956.09;10517420;28;20406;-75
2022/08/05 14:35:36;;;;;;;0.00;0.00;;;;;;;20.71;69.32;101968.28;10503839;28;20468;-76
2022/08/05 14:40:51;;;;;;;0.85;0.45;;;;;;;20.73;69.18;101961.34;10541786;28;20048;-75
2022/08/05 14:45:52;;;;;;;0.00;0.00;;;;;;;20.70;70.52;101963.91;10544482;28;20463;-75
2022/08/05 14:50:54;;;;;;;0.00;0.00;;;;;;;20.67;66.63;101971.75;10501306;28;20127;-75
2022/08/05 14:55:56;;;;;;;0.00;0.00;;;;;;;20.86;69.78;101973.56;10484289;28;20049;-74
2022/08/05 15:00:58;;;;;;;0.00;0.00;;;;;;;20.42;70.13;101975.22;10514625;28;20059;-76
2022/08/05 15:06:03;;;;;;;0.00;0.00;;;;;;;20.21;67.02;101991.75;10540087;28;20036;-75
2022/08/05 15:11:16;;;;;;;0.00;0.00;;;;;;;20.24;69.50;101990.91;10519319;28;20055;-75
2022/08/05 15:23:12;;;;;;;0.00;0.00;;;;;;;20.01;74.23;101996.03;10510673;28;20441;-76
2022/08/05 15:29:20;;;;;;;0.20;0.13;;;;;;;20.34;64.07;101997.03;10524562;28;20051;-75
2022/08/05 15:34:23;;;;;;;0.43;0.30;;;;;;;20.92;71.10;101997.13;10539681;28;20047;-75
2022/08/05 15:39:34;;;;;;;0.00;0.00;;;;;;;21.05;65.54;101997.13;10500854;28;20046;-74
2022/08/05 15:44:55;;;;;;;0.00;0.00;;;;;;;20.28;68.08;102004.00;10508858;28;20094;-75
2022/08/05 15:49:57;;;;;;;0.00;0.00;;;;;;;20.09;75.16;102002.16;10537132;28;20045;-75
2022/08/05 15:55:00;;;;;;;0.00;0.00;;;;;;;20.15;83.57;101990.84;10542017;28;20101;-74
2022/08/05 16:00:04;;;;;;;0.00;0.00;;;;;;;20.40;75.45;101991.78;10507132;28;20135;-75
2022/08/05 16:05:07;;;;;;;0.00;0.00;;;;;;;20.77;74.84;101992.75;10523749;28;20059;-75
2022/08/05 16:10:11;;;;;;;0.00;0.00;;;;;;;21.04;72.14;102001.50;10523290;28;20434;-74
2022/08/05 16:15:13;;;;;;;0.03;0.00;;;;;;;20.39;70.25;102004.03;10522700;28;20078;-75
2022/08/05 16:20:19;;;;;;;0.00;0.00;;;;;;;20.22;79.61;102006.56;10541977;28;20036;-75
2022/08/05 16:25:20;;;;;;;0.00;0.00;;;;;;;20.78;74.76;102009.34;10541518;28;20044;-76
2022/08/05 16:30:33;;;;;;;0.00;0.00;;;;;;;20.87;76.36;102019.84;10522655;28;20161;-75
2022/08/05 16:35:36;;;;;;;0.00;0.00;;;;;;;20.49;69.52;102018.00;10540292;28;20044;-75
2022/08/05 16:40:45;;;;;;;0.52;0.20;;;;;;;20.27;73.19;102022.28;10540464;28;20055;-76
2022/08/05 16:45:57;;;;;;;0.00;0.00;;;;;;;20.07;76.45;102022.19;10522239;28;20048;-75
2022/08/05 16:51:08;;;;;;;0.00;0.00;;;;;;;19.91;82.48;102035.25;10539453;28;20399;-74
2022/08/05 16:56:11;;;;;;;0.00;0.00;;;;;;;19.91;83.09;102037.84;10521747;28;20044;-75
2022/08/05 17:01:13;;;;;;;0.10;0.10;;;;;;;19.97;85.03;102039.59;10539419;28;20044;-75
2022/08/05 17:06:14;;;;;;;0.00;0.00;;;;;;;20.02;85.93;102042.25;10521634;28;20059;-75
2022/08/05 17:11:17;;;;;;;0.00;0.00;;;;;;;19.83;90.22;102047.38;10521052;28;20048;-75
2022/08/05 17:23:18;;;;;;;0.00;0.00;;;;;;;19.44;91.82;102069.75;10544324;28;20028;-78
2022/08/05 17:28:40;;;;;;;0.00;0.00;;;;;;;19.59;93.64;102069.88;10534899;28;20498;-77
2022/08/05 17:33:42;;;;;;;0.00;0.00;;;;;;;19.58;87.98;102068.13;10543039;28;20051;-76
2022/08/05 17:38:49;;;;;;;0.00;0.00;;;;;;;19.60;92.21;102076.84;10524511;28;20055;-76
2022/08/05 17:43:50;;;;;;;0.00;0.00;;;;;;;19.24;92.22;102094.00;10541162;28;20101;-76
2022/08/05 17:48:54;;;;;;;0.00;0.00;;;;;;;18.90;96.88;102097.97;10531197;28;20398;-76
2022/08/05 17:53:58;;;;;;;0.00;0.00;;;;;;;18.76;96.83;102105.66;10540852;28;20395;-75
2022/08/05 17:59:00;;;;;;;0.00;0.00;;;;;;;18.89;100.00;102107.53;10540909;28;20044;-75
2022/08/05 18:04:03;;;;;;;0.00;0.00;;;;;;;18.85;100.00;102117.06;10547511;28;20062;-76
2022/08/05 18:09:11;;;;;;;0.10;0.10;;;;;;;18.55;100.00;102115.00;10546414;28;20551;-75
2022/08/05 18:14:15;;;;;;;0.00;0.00;;;;;;;18.57;100.00;102123.72;10548063;28;20099;-76
2022/08/05 18:19:21;;;;;;;0.00;0.00;;;;;;;18.71;100.00;102135.22;10545138;28;20047;-75
2022/08/05 18:24:26;;;;;;;0.00;0.00;;;;;;;18.47;100.00;102147.94;10545366;28;20491;-75
2022/08/05 18:29:28;;;;;;;0.13;0.10;;;;;;;18.20;99.06;102154.56;10541631;28;20040;-76
2022/08/05 18:34:41;;;;;;;0.65;0.15;;;;;;;18.17;92.92;102167.53;10504759;28;20063;-77
2022/08/05 18:39:43;;;;;;;0.03;0.03;;;;;;;17.97;91.35;102168.13;10486133;28;20052;-76
2022/08/05 18:45:06;;;;;;;0.10;0.10;;;;;;;17.89;91.96;102182.75;10472845;28;20063;-75
2022/08/05 18:55:47;;;;;;;0.00;0.00;;;;;;;17.50;90.98;102189.03;10503386;28;20115;-74
2022/08/05 19:00:49;;;;;;;0.00;0.00;;;;;;;17.27;92.97;102190.38;10485415;28;20047;-74
2022/08/05 19:05:51;;;;;;;0.00;0.00;;;;;;;17.08;94.26;102186.53;10484499;28;20055;-74
2022/08/05 19:11:13;;;;;;;0.20;0.20;;;;;;;17.08;92.60;102196.06;10483766;28;20036;-74
2022/08/05 19:16:15;;;;;;;0.00;0.00;;;;;;;16.84;95.22;102206.84;10501864;28;20490;-75
2022/08/05 19:21:29;;;;;;;0.00;0.00;;;;;;;16.64;100.00;102221.19;10486484;28;20064;-74
2022/08/05 19:26:36;;;;;;;0.08;0.08;;;;;;;16.50;100.00;102228.66;10484941;28;20056;-74
2022/08/05 19:31:55;;;;;;;0.00;0.00;;;;;;;16.03;100.00;102241.44;10525847;28;20032;-75
2022/08/05 19:36:57;;;;;;;0.20;0.20;;;;;;;16.05;100.00;102249.28;10541714;28;20083;-74
2022/08/05 19:41:59;;;;;;;0.00;0.00;;;;;;;15.65;100.00;102254.31;10543311;28;20105;-75
2022/08/05 19:47:09;;;;;;;;;;;;;;;15.54;100.00;102270.47;10541172;28;20047;-75
2022/08/05 19:52:15;;;;;;;0.13;0.13;;;;;;;15.57;100.00;102277.47;10513148;28;19924;-74
2022/08/05 19:57:39;;;;;;;0.10;0.10;;;;;;;15.36;100.00;102298.53;10485450;28;20048;-74
2022/08/05 20:03:01;;;;;;;0.00;0.00;;;;;;;15.19;100.00;102296.31;10506768;28;20376;-74
2022/08/05 20:08:09;;;;;;;0.00;0.00;;;;;;;15.02;100.00;102292.34;10507954;28;20407;-75
2022/08/05 20:13:11;;;;;;;0.00;0.00;;;;;;;14.70;100.00;102306.09;10523346;28;20056;-75
2022/08/05 20:18:16;;;;;;;0.00;0.00;;;;;;;14.72;100.00;102309.63;10523919;28;20094;-75
2022/08/05 20:23:37;;;;;;;4.28;0.32;;;;;;;14.56;100.00;102316.00;10540532;28;20044;-74
2022/08/05 20:28:55;;;;;;;0.10;0.03;;;;;;;14.40;100.00;102326.72;10508340;28;20067;-74
2022/08/05 20:33:57;;;;;;;0.00;0.00;;;;;;;14.24;100.00;102330.50;10522863;28;20048;-74
2022/08/05 20:38:59;;;;;;;0.08;0.03;;;;;;;13.99;100.00;102334.88;10540419;28;20052;-75
2022/08/05 20:44:00;;;;;;;0.00;0.00;;;;;;;13.86;100.00;102343.91;10537879;28;20055;-74
2022/08/05 20:49:19;;;;;;;0.50;0.15;;;;;;;13.60;100.00;102341.25;10539383;28;20055;-74
2022/08/05 20:54:28;;;;;;;0.00;0.00;;;;;;;13.48;100.00;102346.00;10541211;28;20507;-74
2022/08/05 20:59:50;;;;;;;1.88;0.08;;;;;;;13.39;100.00;102356.00;10540236;28;20457;-75
2022/08/05 21:05:37;;;;;;;0.00;0.00;;;;;;;13.14;100.00;102375.75;10480837;28;20041;-74
2022/08/05 21:10:55;;;;;;;0.10;0.00;;;;;;;12.91;100.00;102380.91;10505127;28;20465;-75
2022/08/05 21:15:59;;;;;;;0.00;0.00;;;;;;;13.00;100.00;102377.78;10522233;28;20048;-74
2022/08/05 21:21:01;;;;;;;0.20;0.00;;;;;;;12.84;100.00;102391.81;10521398;28;20135;-73
2022/08/05 21:26:05;;;;;;;0.05;0.00;;;;;;;12.68;100.00;102404.13;10504944;28;20495;-74
2022/08/05 21:31:12;;;;;;;0.73;0.23;;;;;;;12.74;100.00;102400.03;10523389;28;20036;-74
2022/08/05 21:36:17;;;;;;;0.00;0.00;;;;;;;12.52;100.00;102406.88;10544819;28;20379;-74
2022/08/05 21:41:32;;;;;;;0.25;0.00;;;;;;;12.37;100.00;102407.09;10530877;28;20036;-73
2022/08/05 21:46:35;;;;;;;0.10;0.10;;;;;;;12.29;100.00;102411.97;10529215;28;20054;-74
2022/08/05 21:51:37;;;;;;;0.10;0.10;;;;;;;12.17;100.00;102417.47;10512435;28;20044;-74
2022/08/05 21:56:59;;;;;;;0.00;0.00;;;;;;;12.13;100.00;102422.44;10547397;28;20047;-74
2022/08/05 22:02:20;;;;;;;0.32;0.10;;;;;;;12.00;100.00;102416.75;10563451;28;20044;-74
2022/08/05 22:07:23;;;;;;;0.45;0.20;;;;;;;11.82;100.00;102423.63;10570091;28;20086;-74
2022/08/05 22:12:44;;;;;;;0.00;0.00;;;;;;;11.77;100.00;102430.28;10570662;28;20058;-74
2022/08/05 22:17:52;;;;;;;0.00;0.00;;;;;;;11.48;100.00;102437.56;10569789;28;20075;-74
2022/08/05 22:28:22;;;;;;;0.65;0.30;;;;;;;11.33;100.00;102448.94;10569263;28;20035;-75
2022/08/05 22:33:27;;;;;;;0.00;0.00;;;;;;;11.41;100.00;102447.63;10569118;28;20062;-74
2022/08/05 22:38:49;;;;;;;0.20;0.17;;;;;;;11.49;100.00;102445.38;10570226;28;20074;-74
2022/08/05 22:43:50;;;;;;;1.55;0.13;;;;;;;11.30;100.00;102443.63;10587035;28;20042;-74
2022/08/05 22:48:52;;;;;;;0.15;0.03;;;;;;;11.32;100.00;102456.63;10567752;28;20494;-73
2022/08/05 22:53:54;;;;;;;0.00;0.00;;;;;;;11.28;100.00;102473.66;10568990;28;20051;-74
2022/08/05 22:58:57;;;;;;;0.17;0.10;;;;;;;11.26;100.00;102472.69;10568733;28;20052;-73
2022/08/05 23:04:00;;;;;;;0.20;0.20;;;;;;;11.23;100.00;102480.25;10567760;28;20050;-74
2022/08/05 23:09:29;;;;;;;0.20;0.08;;;;;;;11.13;100.00;102473.78;10526294;28;20062;-74
2022/08/05 23:14:50;;;;;;;0.00;0.00;;;;;;;10.82;100.00;102482.56;10529899;28;20098;-74
2022/08/05 23:19:58;;;;;;;0.10;0.10;;;;;;;10.56;100.00;102488.97;10525232;28;20097;-74
2022/08/05 23:24:59;;;;;;;0.10;0.10;;;;;;;10.60;100.00;102496.06;10543472;28;20127;-74
2022/08/05 23:30:01;;;;;;;0.80;0.10;;;;;;;10.67;100.00;102493.00;10543681;28;20395;-74
2022/08/05 23:35:09;;;;;;;0.00;0.00;;;;;;;10.66;100.00;102498.97;10543069;28;20044;-74
2022/08/05 23:40:10;;;;;;;0.00;0.00;;;;;;;10.57;100.00;102501.06;10542770;28;20070;-74
2022/08/05 23:45:12;;;;;;;0.13;0.13;;;;;;;10.47;100.00;102505.72;10524559;28;20067;-74
2022/08/05 23:50:16;;;;;;;0.25;0.10;;;;;;;10.45;100.00;102515.09;10524696;28;20048;-74
2022/08/05 23:55:21;;;;;;;0.30;0.25;;;;;;;10.50;100.00;102522.16;10524338;28;20050;-74
